Delhi, LA

3:14 PM CDT on May 24, 2015 (GMT -0500)
Vicksburg Tallulah Regional | | Change Station
CLOSE
Current Station
Airport
Location: Vicksburg,
Elevation: 85 ft
Nearby Weather Stations
Active Advisory: Tornado Watch

Elev 85 ft 32.35 °N, 91.03 °W | Updated 7 minutes ago

Partly Cloudy
Partly Cloudy
80 °F
Feels Like 82 °F
N
5
Wind Variable Wind from Variable

Today
High -- | Low -- °F
--% Chance of Precip.
Yesterday
High -- | Low -- °F
Precip. -- in
6:02 AM 8:03 PM
Waxing Crescent, 42% visible
Pressure 29.98 in
Visibility 5.0 miles
Clouds Few 3200 ft
Scattered Clouds 6000 ft
Mostly Cloudy 7000 ft
Heat Index 82 °F
Dew Point 67 °F
Humidity 64%
Rainfall 0.00 in
Snow Depth Not available.
UV 5 out of 12
Pollen 4.50 out of 12
Air Quality Not available.
Flu Activity Sporadic
SPECI KTVR 242007Z AUTO VRB04KT 5SM VCTS RA FEW032 SCT060 BKN070 27/19 A2998 RMK AO2 LTG DSNT ALQDS RAB06 P0001 T02670194

More Conditions Fewer Conditions

Pressure 29.98 in
Visibility 5.0 miles
Clouds Few 3200 ft
Scattered Clouds 6000 ft
Mostly Cloudy 7000 ft
Heat Index 82 °F
Dew Point 67 °F
Humidity 64%
Rainfall 0.00 in
Snow Depth Not available.
UV 5 out of 12
Pollen 4.50 out of 12
Air Quality Not available.
Flu Activity Sporadic
SPECI KTVR 242007Z AUTO VRB04KT 5SM VCTS RA FEW032 SCT060 BKN070 27/19 A2998 RMK AO2 LTG DSNT ALQDS RAB06 P0001 T02670194

More Conditions Fewer Conditions

10-Day Weather Forecast

Almanac

Astronomy

May. 24, 2015 Rise Set
Actual Time
Civil Twilight
Nautical Twilight
Astronomical Twilight
Moon
Length of Visible Light
Length of Day
Tomorrow will be .
, % of the Moon is Illuminated

Today's Extremes

State Highs State Lows

Community

WunderPhotos

Upload Photos

1,823,851 photos uploaded!

WunderBlogs® & News

Nearby

Air Quality

  Air Quality AQ Index Pollutant
Not available.

Snow Depth

Station Depth Elevation

Earthquake Activity

City Distance Mag. Time & Date
Minimum magnitude displayed is 2.5.

Coastal Water Temperatures

Place Temperature

Stations

Nearby Weather Stations

Station Location Temp. Windchill Dew Point Humidity Wind Precip. Elev Updated Type
                   
Tornado Watch
Statement as of 2:43 PM CDT on May 24, 2015

Tornado Watch 204 remains in effect until 800 PM CDT for the
following locations

La
. Louisiana parishes included are

Acadia Allen Ascension
Assumption Avoyelles Caldwell
Catahoula Concordia East Baton Rouge
East Carroll East Feliciana Evangeline
Franklin Grant Iberia
Iberville Jefferson Jefferson Davis
Lafayette Lafourche La Salle
Livingston Madison Morehouse
Orleans Plaquemines Pointe Coupee
Rapides Richland St. Bernard
St. Charles St. Helena St. James
St. John The Baptist St. Landry St. Martin
St. Mary St. Tammany Tangipahoa
Tensas Terrebonne Vermilion
Washington West Baton Rouge West Carroll
West Feliciana Winn